sensor_id;sensor_type;location;lat;lon;timestamp;pressure;altitude;pressure_sealevel;temperature;humidity
6528;BME280;64597;42.664;23.256;2023-04-15T00:02:18;93829.19;;;8.90;65.82
6528;BME280;64597;42.664;23.256;2023-04-15T00:04:49;93840.72;;;8.89;67.09
6528;BME280;64597;42.664;23.256;2023-04-15T00:07:22;93841.28;;;8.91;66.86
6528;BME280;64597;42.664;23.256;2023-04-15T00:09:56;93838.91;;;8.90;66.76
6528;BME280;64597;42.664;23.256;2023-04-15T00:12:27;93836.38;;;8.78;67.21
6528;BME280;64597;42.664;23.256;2023-04-15T00:14:57;93818.84;;;8.67;67.70
6528;BME280;64597;42.664;23.256;2023-04-15T00:17:26;93827.28;;;8.69;68.95
6528;BME280;64597;42.664;23.256;2023-04-15T00:20:00;93824.66;;;8.69;68.43
6528;BME280;64597;42.664;23.256;2023-04-15T00:22:30;93829.38;;;8.67;68.31
6528;BME280;64597;42.664;23.256;2023-04-15T00:25:04;93829.84;;;8.64;67.96
6528;BME280;64597;42.664;23.256;2023-04-15T00:27:36;93825.38;;;8.65;69.50
6528;BME280;64597;42.664;23.256;2023-04-15T00:30:11;93838.75;;;8.63;69.13
6528;BME280;64597;42.664;23.256;2023-04-15T00:32:46;93833.34;;;8.70;69.14
6528;BME280;64597;42.664;23.256;2023-04-15T00:35:19;93824.91;;;8.68;69.42
6528;BME280;64597;42.664;23.256;2023-04-15T00:37:49;93828.78;;;8.82;69.96
6528;BME280;64597;42.664;23.256;2023-04-15T00:40:25;93825.69;;;8.85;69.28
6528;BME280;64597;42.664;23.256;2023-04-15T00:42:57;93822.81;;;8.86;69.55
6528;BME280;64597;42.664;23.256;2023-04-15T00:45:26;93805.94;;;8.82;69.65
6528;BME280;64597;42.664;23.256;2023-04-15T00:48:00;93807.06;;;8.86;69.56
6528;BME280;64597;42.664;23.256;2023-04-15T00:50:38;93813.47;;;8.95;69.95
6528;BME280;64597;42.664;23.256;2023-04-15T00:53:10;93817.69;;;8.96;69.69
6528;BME280;64597;42.664;23.256;2023-04-15T00:55:45;93815.53;;;8.93;70.38
6528;BME280;64597;42.664;23.256;2023-04-15T00:58:14;93825.03;;;8.94;69.73
6528;BME280;64597;42.664;23.256;2023-04-15T01:00:45;93822.97;;;8.96;70.35
6528;BME280;64597;42.664;23.256;2023-04-15T01:03:12;93822.88;;;8.91;69.32
6528;BME280;64597;42.664;23.256;2023-04-15T01:05:40;93830.84;;;8.96;69.33
6528;BME280;64597;42.664;23.256;2023-04-15T01:08:14;93842.16;;;8.97;69.29
6528;BME280;64597;42.664;23.256;2023-04-15T01:10:43;93843.19;;;8.96;68.95
6528;BME280;64597;42.664;23.256;2023-04-15T01:13:11;93841.38;;;8.96;68.45
6528;BME280;64597;42.664;23.256;2023-04-15T01:15:40;93835.47;;;8.89;68.48
6528;BME280;64597;42.664;23.256;2023-04-15T01:18:12;93853.31;;;8.87;68.71
6528;BME280;64597;42.664;23.256;2023-04-15T01:20:44;93842.75;;;8.82;68.81
6528;BME280;64597;42.664;23.256;2023-04-15T01:23:15;93843.22;;;8.79;68.91
6528;BME280;64597;42.664;23.256;2023-04-15T01:25:47;93837.47;;;8.82;68.07
6528;BME280;64597;42.664;23.256;2023-04-15T01:28:16;93838.44;;;8.76;67.93
6528;BME280;64597;42.664;23.256;2023-04-15T01:30:45;93830.63;;;8.65;68.48
6528;BME280;64597;42.664;23.256;2023-04-15T01:33:15;93821.03;;;8.54;68.95
6528;BME280;64597;42.664;23.256;2023-04-15T01:35:47;93814.41;;;8.35;69.11
6528;BME280;64597;42.664;23.256;2023-04-15T01:38:15;93824.66;;;8.36;69.28
6528;BME280;64597;42.664;23.256;2023-04-15T01:40:48;93832.88;;;8.40;69.53
6528;BME280;64597;42.664;23.256;2023-04-15T01:43:14;93830.00;;;8.41;68.92
6528;BME280;64597;42.664;23.256;2023-04-15T01:45:43;93828.75;;;8.44;68.49
6528;BME280;64597;42.664;23.256;2023-04-15T01:48:11;93833.69;;;8.40;68.83
6528;BME280;64597;42.664;23.256;2023-04-15T01:50:46;93832.38;;;8.26;68.39
6528;BME280;64597;42.664;23.256;2023-04-15T01:53:13;93836.66;;;8.15;68.47
6528;BME280;64597;42.664;23.256;2023-04-15T01:55:40;93843.06;;;8.08;68.80
6528;BME280;64597;42.664;23.256;2023-04-15T01:58:12;93832.31;;;7.93;68.50
6528;BME280;64597;42.664;23.256;2023-04-15T02:00:42;93854.66;;;7.95;68.61
6528;BME280;64597;42.664;23.256;2023-04-15T02:03:13;93857.13;;;8.02;68.76
6528;BME280;64597;42.664;23.256;2023-04-15T02:05:43;93858.25;;;8.06;68.21
6528;BME280;64597;42.664;23.256;2023-04-15T02:08:12;93861.44;;;8.08;68.65
6528;BME280;64597;42.664;23.256;2023-04-15T02:10:40;93855.63;;;8.06;68.94
6528;BME280;64597;42.664;23.256;2023-04-15T02:13:07;93854.50;;;8.02;69.18
6528;BME280;64597;42.664;23.256;2023-04-15T02:15:36;93818.53;;;7.86;68.75
6528;BME280;64597;42.664;23.256;2023-04-15T02:18:08;93846.47;;;7.92;69.27
6528;BME280;64597;42.664;23.256;2023-04-15T02:20:34;93842.72;;;7.88;69.17
6528;BME280;64597;42.664;23.256;2023-04-15T02:23:04;93846.28;;;7.82;69.68
6528;BME280;64597;42.664;23.256;2023-04-15T02:25:33;93836.72;;;7.76;69.52
6528;BME280;64597;42.664;23.256;2023-04-15T02:28:08;93828.75;;;7.71;69.59
6528;BME280;64597;42.664;23.256;2023-04-15T02:30:38;93840.75;;;7.67;69.32
6528;BME280;64597;42.664;23.256;2023-04-15T02:33:07;93847.72;;;7.73;69.60
6528;BME280;64597;42.664;23.256;2023-04-15T02:35:38;93841.41;;;7.74;69.54
6528;BME280;64597;42.664;23.256;2023-04-15T02:38:11;93818.44;;;7.53;69.62
6528;BME280;64597;42.664;23.256;2023-04-15T02:40:41;93849.19;;;7.69;69.29
6528;BME280;64597;42.664;23.256;2023-04-15T02:43:09;93846.22;;;7.65;68.96
6528;BME280;64597;42.664;23.256;2023-04-15T02:45:40;93846.72;;;7.62;69.32
6528;BME280;64597;42.664;23.256;2023-04-15T02:48:11;93850.66;;;7.65;69.26
6528;BME280;64597;42.664;23.256;2023-04-15T02:50:43;93855.91;;;7.65;69.21
6528;BME280;64597;42.664;23.256;2023-04-15T02:53:12;93853.34;;;7.53;69.39
6528;BME280;64597;42.664;23.256;2023-04-15T02:55:45;93850.06;;;7.46;69.38
6528;BME280;64597;42.664;23.256;2023-04-15T02:58:13;93862.84;;;7.42;69.50
6528;BME280;64597;42.664;23.256;2023-04-15T03:00:40;93874.94;;;7.43;69.49
6528;BME280;64597;42.664;23.256;2023-04-15T03:03:06;93866.50;;;7.41;69.15
6528;BME280;64597;42.664;23.256;2023-04-15T03:05:37;93863.63;;;7.43;69.79
6528;BME280;64597;42.664;23.256;2023-04-15T03:08:06;93867.06;;;7.43;69.69
6528;BME280;64597;42.664;23.256;2023-04-15T03:10:38;93869.94;;;7.30;70.03
6528;BME280;64597;42.664;23.256;2023-04-15T03:13:10;93878.06;;;7.17;70.84
6528;BME280;64597;42.664;23.256;2023-04-15T03:15:39;93876.69;;;7.15;70.29
6528;BME280;64597;42.664;23.256;2023-04-15T03:18:11;93871.78;;;7.18;70.49
6528;BME280;64597;42.664;23.256;2023-04-15T03:20:43;93852.53;;;7.13;70.07
6528;BME280;64597;42.664;23.256;2023-04-15T03:23:14;93865.03;;;7.22;70.22
6528;BME280;64597;42.664;23.256;2023-04-15T03:25:46;93871.56;;;7.08;70.27
6528;BME280;64597;42.664;23.256;2023-04-15T03:28:18;93879.88;;;7.17;69.97
6528;BME280;64597;42.664;23.256;2023-04-15T03:30:49;93870.53;;;6.98;70.62
6528;BME280;64597;42.664;23.256;2023-04-15T03:33:18;93887.72;;;7.05;70.42
6528;BME280;64597;42.664;23.256;2023-04-15T03:35:54;93884.69;;;6.97;70.04
6528;BME280;64597;42.664;23.256;2023-04-15T03:38:32;93888.63;;;6.99;70.56
6528;BME280;64597;42.664;23.256;2023-04-15T03:41:03;93905.50;;;7.03;70.30
6528;BME280;64597;42.664;23.256;2023-04-15T03:43:34;93901.88;;;7.04;70.58
6528;BME280;64597;42.664;23.256;2023-04-15T03:46:05;93903.44;;;7.05;70.40
6528;BME280;64597;42.664;23.256;2023-04-15T03:48:32;93922.94;;;6.98;69.82
6528;BME280;64597;42.664;23.256;2023-04-15T03:51:03;93916.66;;;6.87;70.50
6528;BME280;64597;42.664;23.256;2023-04-15T03:53:33;93922.59;;;6.94;70.49
6528;BME280;64597;42.664;23.256;2023-04-15T03:56:03;93918.47;;;6.75;71.27
6528;BME280;64597;42.664;23.256;2023-04-15T03:58:33;93921.91;;;6.76;71.62
6528;BME280;64597;42.664;23.256;2023-04-15T04:01:01;93928.28;;;6.91;70.85
6528;BME280;64597;42.664;23.256;2023-04-15T04:03:33;93926.56;;;6.85;71.19
6528;BME280;64597;42.664;23.256;2023-04-15T04:06:02;93931.81;;;6.85;70.69
6528;BME280;64597;42.664;23.256;2023-04-15T04:08:35;93934.19;;;6.75;71.13
6528;BME280;64597;42.664;23.256;2023-04-15T04:11:04;93937.06;;;6.74;70.83
6528;BME280;64597;42.664;23.256;2023-04-15T04:13:37;93935.69;;;6.71;70.80
6528;BME280;64597;42.664;23.256;2023-04-15T04:16:05;93907.53;;;6.55;70.69
6528;BME280;64597;42.664;23.256;2023-04-15T04:18:34;93909.56;;;6.53;71.22
6528;BME280;64597;42.664;23.256;2023-04-15T04:21:00;93934.09;;;6.70;70.95
6528;BME280;64597;42.664;23.256;2023-04-15T04:23:36;93929.28;;;6.67;71.25
6528;BME280;64597;42.664;23.256;2023-04-15T04:26:05;93922.34;;;6.61;71.59
6528;BME280;64597;42.664;23.256;2023-04-15T04:28:33;93926.69;;;6.67;71.38
6528;BME280;64597;42.664;23.256;2023-04-15T04:31:05;93928.16;;;6.75;71.51
6528;BME280;64597;42.664;23.256;2023-04-15T04:33:35;93929.66;;;6.82;71.55
6528;BME280;64597;42.664;23.256;2023-04-15T04:36:05;93925.09;;;6.89;71.53
6528;BME280;64597;42.664;23.256;2023-04-15T04:38:33;93928.41;;;6.96;71.63
6528;BME280;64597;42.664;23.256;2023-04-15T04:41:03;93933.66;;;7.08;71.48
6528;BME280;64597;42.664;23.256;2023-04-15T04:43:36;93930.56;;;7.22;72.07
6528;BME280;64597;42.664;23.256;2023-04-15T04:46:05;93925.09;;;7.35;71.52
6528;BME280;64597;42.664;23.256;2023-04-15T04:48:38;93933.06;;;7.40;71.46
6528;BME280;64597;42.664;23.256;2023-04-15T04:51:07;93940.91;;;7.64;71.43
6528;BME280;64597;42.664;23.256;2023-04-15T04:53:35;93938.50;;;7.74;71.44
6528;BME280;64597;42.664;23.256;2023-04-15T04:56:05;93945.75;;;7.83;70.99
6528;BME280;64597;42.664;23.256;2023-04-15T04:58:33;93941.88;;;7.86;70.28
6528;BME280;64597;42.664;23.256;2023-04-15T05:01:05;93943.44;;;7.98;70.33
6528;BME280;64597;42.664;23.256;2023-04-15T05:03:38;93937.56;;;8.08;70.29
6528;BME280;64597;42.664;23.256;2023-04-15T05:06:05;93948.75;;;8.43;68.67
6528;BME280;64597;42.664;23.256;2023-04-15T05:08:38;93958.34;;;8.49;67.90
6528;BME280;64597;42.664;23.256;2023-04-15T05:11:10;93962.19;;;8.58;66.51
6528;BME280;64597;42.664;23.256;2023-04-15T05:13:37;93976.69;;;8.77;65.66
6528;BME280;64597;42.664;23.256;2023-04-15T05:16:06;93973.69;;;9.02;66.23
6528;BME280;64597;42.664;23.256;2023-04-15T05:18:35;93973.91;;;9.34;65.42
6528;BME280;64597;42.664;23.256;2023-04-15T05:21:05;93977.16;;;9.57;64.11
6528;BME280;64597;42.664;23.256;2023-04-15T05:23:35;93978.09;;;9.68;62.43
6528;BME280;64597;42.664;23.256;2023-04-15T05:26:05;93962.00;;;9.86;62.47
6528;BME280;64597;42.664;23.256;2023-04-15T05:28:34;93971.91;;;10.17;62.54
6528;BME280;64597;42.664;23.256;2023-04-15T05:31:04;93965.88;;;10.43;61.45
6528;BME280;64597;42.664;23.256;2023-04-15T05:33:38;93951.69;;;10.49;59.15
6528;BME280;64597;42.664;23.256;2023-04-15T05:36:07;93966.78;;;10.81;58.55
6528;BME280;64597;42.664;23.256;2023-04-15T05:38:37;93962.75;;;11.05;57.15
6528;BME280;64597;42.664;23.256;2023-04-15T05:41:04;93961.81;;;11.21;56.61
6528;BME280;64597;42.664;23.256;2023-04-15T05:43:33;93969.41;;;11.49;55.05
6528;BME280;64597;42.664;23.256;2023-04-15T05:46:04;93968.31;;;11.77;54.36
6528;BME280;64597;42.664;23.256;2023-04-15T05:48:31;93954.88;;;11.88;53.75
6528;BME280;64597;42.664;23.256;2023-04-15T05:51:05;93955.56;;;12.20;52.47
6528;BME280;64597;42.664;23.256;2023-04-15T05:53:38;93966.97;;;12.26;52.25
6528;BME280;64597;42.664;23.256;2023-04-15T05:56:06;93959.06;;;12.41;52.53
6528;BME280;64597;42.664;23.256;2023-04-15T05:58:36;93963.88;;;12.54;51.97
6528;BME280;64597;42.664;23.256;2023-04-15T06:01:06;93969.69;;;12.56;52.04
6528;BME280;64597;42.664;23.256;2023-04-15T06:03:38;93965.81;;;12.99;51.60
6528;BME280;64597;42.664;23.256;2023-04-15T06:06:08;93967.44;;;13.40;50.25
6528;BME280;64597;42.664;23.256;2023-04-15T06:08:44;93970.31;;;13.64;50.70
6528;BME280;64597;42.664;23.256;2023-04-15T06:11:19;93959.06;;;14.17;49.31
6528;BME280;64597;42.664;23.256;2023-04-15T06:13:49;93951.06;;;14.86;46.77
6528;BME280;64597;42.664;23.256;2023-04-15T06:16:22;93973.94;;;15.21;46.09
6528;BME280;64597;42.664;23.256;2023-04-15T06:18:53;93967.06;;;15.53;43.61
6528;BME280;64597;42.664;23.256;2023-04-15T06:21:24;93974.25;;;15.82;44.38
6528;BME280;64597;42.664;23.256;2023-04-15T06:23:52;93973.97;;;16.07;42.87
6528;BME280;64597;42.664;23.256;2023-04-15T06:26:20;93981.84;;;16.40;42.10
6528;BME280;64597;42.664;23.256;2023-04-15T06:28:50;93982.50;;;16.75;41.51
6528;BME280;64597;42.664;23.256;2023-04-15T06:31:23;93984.63;;;16.96;40.29
6528;BME280;64597;42.664;23.256;2023-04-15T06:33:50;93981.94;;;17.33;40.14
6528;BME280;64597;42.664;23.256;2023-04-15T06:36:17;93989.41;;;17.69;39.60
6528;BME280;64597;42.664;23.256;2023-04-15T06:38:51;93999.41;;;17.77;39.03
6528;BME280;64597;42.664;23.256;2023-04-15T06:41:18;93988.19;;;17.93;38.72
6528;BME280;64597;42.664;23.256;2023-04-15T06:43:46;93997.91;;;18.03;38.26
6528;BME280;64597;42.664;23.256;2023-04-15T06:46:19;93984.34;;;18.45;37.74
6528;BME280;64597;42.664;23.256;2023-04-15T06:48:50;94005.59;;;18.77;37.60
6528;BME280;64597;42.664;23.256;2023-04-15T06:51:24;94000.91;;;18.97;36.87
6528;BME280;64597;42.664;23.256;2023-04-15T06:53:53;94001.19;;;19.09;35.86
6528;BME280;64597;42.664;23.256;2023-04-15T06:56:22;93999.88;;;19.33;35.32
6528;BME280;64597;42.664;23.256;2023-04-15T06:58:50;93992.41;;;19.30;35.92
6528;BME280;64597;42.664;23.256;2023-04-15T07:01:23;93988.81;;;19.48;33.39
6528;BME280;64597;42.664;23.256;2023-04-15T07:03:49;93987.91;;;19.53;34.98
6528;BME280;64597;42.664;23.256;2023-04-15T07:06:17;93994.47;;;19.69;33.82
6528;BME280;64597;42.664;23.256;2023-04-15T07:08:46;93968.75;;;19.37;33.32
6528;BME280;64597;42.664;23.256;2023-04-15T07:11:19;93984.22;;;20.15;31.32
6528;BME280;64597;42.664;23.256;2023-04-15T07:13:47;93984.81;;;20.12;29.63
6528;BME280;64597;42.664;23.256;2023-04-15T07:16:22;93991.47;;;19.48;29.61
6528;BME280;64597;42.664;23.256;2023-04-15T07:18:53;93985.31;;;19.61;30.68
6528;BME280;64597;42.664;23.256;2023-04-15T07:21:24;93986.59;;;20.17;29.52
6528;BME280;64597;42.664;23.256;2023-04-15T07:23:54;93988.53;;;20.25;29.39
6528;BME280;64597;42.664;23.256;2023-04-15T07:26:26;93996.47;;;20.30;29.82
6528;BME280;64597;42.664;23.256;2023-04-15T07:28:57;93972.28;;;20.52;29.26
6528;BME280;64597;42.664;23.256;2023-04-15T07:31:31;93995.22;;;20.84;28.43
6528;BME280;64597;42.664;23.256;2023-04-15T07:34:05;93999.13;;;20.69;29.57
6528;BME280;64597;42.664;23.256;2023-04-15T07:36:39;93969.75;;;21.12;28.80
6528;BME280;64597;42.664;23.256;2023-04-15T07:39:13;93985.91;;;20.81;28.36
6528;BME280;64597;42.664;23.256;2023-04-15T07:41:44;93980.13;;;20.96;29.25
6528;BME280;64597;42.664;23.256;2023-04-15T07:44:16;93990.75;;;21.27;28.73
6528;BME280;64597;42.664;23.256;2023-04-15T07:46:47;93982.41;;;21.63;28.08
6528;BME280;64597;42.664;23.256;2023-04-15T07:49:15;93982.41;;;21.54;27.74
6528;BME280;64597;42.664;23.256;2023-04-15T07:51:48;93991.41;;;21.92;27.93
6528;BME280;64597;42.664;23.256;2023-04-15T07:54:19;93987.06;;;22.26;27.26
6528;BME280;64597;42.664;23.256;2023-04-15T07:56:47;93996.22;;;22.25;27.28
6528;BME280;64597;42.664;23.256;2023-04-15T07:59:28;94001.69;;;22.45;26.23
6528;BME280;64597;42.664;23.256;2023-04-15T08:01:56;93994.53;;;22.66;24.96
6528;BME280;64597;42.664;23.256;2023-04-15T08:04:31;93992.47;;;23.01;25.77
6528;BME280;64597;42.664;23.256;2023-04-15T08:07:00;93993.31;;;22.93;25.83
6528;BME280;64597;42.664;23.256;2023-04-15T08:09:31;94004.50;;;23.24;26.65
6528;BME280;64597;42.664;23.256;2023-04-15T08:12:05;94009.09;;;23.53;27.57
6528;BME280;64597;42.664;23.256;2023-04-15T08:14:33;94005.13;;;23.92;25.69
6528;BME280;64597;42.664;23.256;2023-04-15T08:17:04;94000.78;;;23.99;24.98
6528;BME280;64597;42.664;23.256;2023-04-15T08:19:35;94003.38;;;24.28;24.92
6528;BME280;64597;42.664;23.256;2023-04-15T08:22:04;94004.41;;;24.48;24.43
6528;BME280;64597;42.664;23.256;2023-04-15T08:24:37;93999.19;;;24.19;24.43
6528;BME280;64597;42.664;23.256;2023-04-15T08:27:11;93989.13;;;23.74;25.54
6528;BME280;64597;42.664;23.256;2023-04-15T08:29:40;93974.72;;;23.29;26.31
6528;BME280;64597;42.664;23.256;2023-04-15T08:32:10;94001.66;;;23.21;25.03
6528;BME280;64597;42.664;23.256;2023-04-15T08:34:40;93996.34;;;23.12;25.14
6528;BME280;64597;42.664;23.256;2023-04-15T08:37:08;93989.41;;;23.40;25.60
6528;BME280;64597;42.664;23.256;2023-04-15T08:39:39;93966.09;;;23.98;24.91
6528;BME280;64597;42.664;23.256;2023-04-15T08:42:14;93978.88;;;23.68;25.10
6528;BME280;64597;42.664;23.256;2023-04-15T08:44:51;93997.19;;;23.04;23.81
6528;BME280;64597;42.664;23.256;2023-04-15T08:47:28;93987.94;;;21.23;24.54
6528;BME280;64597;42.664;23.256;2023-04-15T08:49:58;93987.44;;;21.13;25.66
6528;BME280;64597;42.664;23.256;2023-04-15T08:52:33;94004.00;;;21.41;24.88
6528;BME280;64597;42.664;23.256;2023-04-15T08:55:07;93986.97;;;21.37;24.56
6528;BME280;64597;42.664;23.256;2023-04-15T08:57:41;93983.97;;;21.81;25.26
6528;BME280;64597;42.664;23.256;2023-04-15T09:00:11;93992.63;;;22.12;24.53
6528;BME280;64597;42.664;23.256;2023-04-15T09:02:41;93979.22;;;22.03;25.05
6528;BME280;64597;42.664;23.256;2023-04-15T09:05:14;93974.03;;;22.45;25.43
6528;BME280;64597;42.664;23.256;2023-04-15T09:07:46;93967.06;;;22.90;24.62
6528;BME280;64597;42.664;23.256;2023-04-15T09:10:22;93972.78;;;23.09;24.56
6528;BME280;64597;42.664;23.256;2023-04-15T09:12:55;93971.03;;;23.13;23.15
6528;BME280;64597;42.664;23.256;2023-04-15T09:15:26;93980.72;;;22.76;21.49
6528;BME280;64597;42.664;23.256;2023-04-15T09:17:59;93955.56;;;22.81;21.44
6528;BME280;64597;42.664;23.256;2023-04-15T09:23:12;93950.16;;;22.52;21.52
6528;BME280;64597;42.664;23.256;2023-04-15T09:25:40;93964.28;;;21.25;22.32
6528;BME280;64597;42.664;23.256;2023-04-15T09:28:11;93959.53;;;21.05;23.85
6528;BME280;64597;42.664;23.256;2023-04-15T09:30:41;93977.28;;;20.93;23.78
6528;BME280;64597;42.664;23.256;2023-04-15T09:33:13;93975.84;;;20.39;24.50
6528;BME280;64597;42.664;23.256;2023-04-15T09:36:05;93971.50;;;20.51;25.66
6528;BME280;64597;42.664;23.256;2023-04-15T09:38:32;93965.44;;;20.94;25.17
6528;BME280;64597;42.664;23.256;2023-04-15T09:41:03;93970.78;;;20.85;24.93
6528;BME280;64597;42.664;23.256;2023-04-15T09:43:42;93964.09;;;21.05;24.93
6528;BME280;64597;42.664;23.256;2023-04-15T09:46:11;93979.69;;;21.03;23.46
6528;BME280;64597;42.664;23.256;2023-04-15T09:48:40;93992.59;;;21.01;21.80
6528;BME280;64597;42.664;23.256;2023-04-15T09:51:12;93960.28;;;20.49;21.02
6528;BME280;64597;42.664;23.256;2023-04-15T09:53:49;93973.81;;;20.36;22.36
6528;BME280;64597;42.664;23.256;2023-04-15T09:56:23;93992.72;;;20.39;21.61
6528;BME280;64597;42.664;23.256;2023-04-15T09:58:59;93984.38;;;20.41;21.73
6528;BME280;64597;42.664;23.256;2023-04-15T10:01:31;93979.88;;;19.75;23.17
6528;BME280;64597;42.664;23.256;2023-04-15T10:04:06;93986.00;;;19.18;23.05
6528;BME280;64597;42.664;23.256;2023-04-15T10:06:41;93970.25;;;18.94;24.61
6528;BME280;64597;42.664;23.256;2023-04-15T10:09:11;93973.31;;;18.87;24.02
6528;BME280;64597;42.664;23.256;2023-04-15T10:11:49;93973.22;;;18.38;24.44
6528;BME280;64597;42.664;23.256;2023-04-15T10:14:21;93974.03;;;18.66;26.23
6528;BME280;64597;42.664;23.256;2023-04-15T10:16:52;93971.63;;;19.05;25.17
6528;BME280;64597;42.664;23.256;2023-04-15T10:19:30;93969.31;;;19.12;24.81
6528;BME280;64597;42.664;23.256;2023-04-15T10:21:59;93963.25;;;19.20;25.12
6528;BME280;64597;42.664;23.256;2023-04-15T10:24:32;93949.34;;;19.32;25.48
6528;BME280;64597;42.664;23.256;2023-04-15T10:27:05;93961.41;;;19.43;23.16
6528;BME280;64597;42.664;23.256;2023-04-15T10:29:37;93958.00;;;19.51;25.02
6528;BME280;64597;42.664;23.256;2023-04-15T10:32:10;93945.31;;;19.87;26.11
6528;BME280;64597;42.664;23.256;2023-04-15T10:34:44;93956.41;;;19.94;25.12
6528;BME280;64597;42.664;23.256;2023-04-15T10:37:18;93954.63;;;19.90;25.41
6528;BME280;64597;42.664;23.256;2023-04-15T10:39:51;93930.59;;;19.98;25.93
6528;BME280;64597;42.664;23.256;2023-04-15T10:42:22;93921.22;;;20.09;26.86
6528;BME280;64597;42.664;23.256;2023-04-15T10:44:58;93938.38;;;20.47;25.89
6528;BME280;64597;42.664;23.256;2023-04-15T10:47:31;93931.13;;;20.39;25.64
6528;BME280;64597;42.664;23.256;2023-04-15T10:50:03;93929.72;;;20.42;24.41
6528;BME280;64597;42.664;23.256;2023-04-15T10:52:33;93930.56;;;20.20;25.35
6528;BME280;64597;42.664;23.256;2023-04-15T10:57:43;93927.69;;;20.17;25.61
6528;BME280;64597;42.664;23.256;2023-04-15T11:00:21;93921.63;;;20.25;26.40
6528;BME280;64597;42.664;23.256;2023-04-15T11:03:05;93919.78;;;20.42;25.02
6528;BME280;64597;42.664;23.256;2023-04-15T11:08:16;93913.53;;;20.56;26.21
6528;BME280;64597;42.664;23.256;2023-04-15T11:10:49;93919.47;;;20.52;25.42
6528;BME280;64597;42.664;23.256;2023-04-15T11:13:23;93923.88;;;20.48;25.86
6528;BME280;64597;42.664;23.256;2023-04-15T11:15:57;93921.22;;;20.48;26.20
6528;BME280;64597;42.664;23.256;2023-04-15T11:18:29;93931.16;;;20.57;25.86
6528;BME280;64597;42.664;23.256;2023-04-15T11:21:02;93937.19;;;20.71;24.37
6528;BME280;64597;42.664;23.256;2023-04-15T11:26:16;93933.03;;;20.47;23.63
6528;BME280;64597;42.664;23.256;2023-04-15T11:28:47;93928.63;;;20.51;24.11
6528;BME280;64597;42.664;23.256;2023-04-15T11:31:19;93944.88;;;20.55;24.09
6528;BME280;64597;42.664;23.256;2023-04-15T11:34:06;93945.94;;;20.45;24.47
6528;BME280;64597;42.664;23.256;2023-04-15T11:36:36;93946.56;;;20.42;24.85
6528;BME280;64597;42.664;23.256;2023-04-15T11:39:09;93938.69;;;20.37;25.09
6528;BME280;64597;42.664;23.256;2023-04-15T11:41:41;93930.84;;;20.49;24.40
6528;BME280;64597;42.664;23.256;2023-04-15T11:44:16;93934.28;;;20.41;24.54
6528;BME280;64597;42.664;23.256;2023-04-15T11:46:48;93927.19;;;20.45;24.86
6528;BME280;64597;42.664;23.256;2023-04-15T11:49:35;93930.69;;;20.54;24.52
6528;BME280;64597;42.664;23.256;2023-04-15T11:52:10;93940.19;;;20.61;24.55
6528;BME280;64597;42.664;23.256;2023-04-15T11:54:42;93927.25;;;20.71;24.39
6528;BME280;64597;42.664;23.256;2023-04-15T11:57:16;93914.81;;;20.67;23.89
6528;BME280;64597;42.664;23.256;2023-04-15T11:59:47;93925.53;;;20.84;23.69
6528;BME280;64597;42.664;23.256;2023-04-15T12:02:17;93932.00;;;20.74;24.17
6528;BME280;64597;42.664;23.256;2023-04-15T12:04:46;93934.69;;;20.83;24.43
6528;BME280;64597;42.664;23.256;2023-04-15T12:07:19;93928.75;;;21.03;22.68
6528;BME280;64597;42.664;23.256;2023-04-15T12:09:54;93926.03;;;20.86;21.92
6528;BME280;64597;42.664;23.256;2023-04-15T12:12:28;93923.63;;;20.76;21.58
6528;BME280;64597;42.664;23.256;2023-04-15T12:14:57;93920.19;;;20.67;21.72
6528;BME280;64597;42.664;23.256;2023-04-15T12:17:28;93925.50;;;20.58;22.06
6528;BME280;64597;42.664;23.256;2023-04-15T12:20:01;93922.16;;;20.44;22.25
6528;BME280;64597;42.664;23.256;2023-04-15T12:22:39;93935.59;;;19.91;22.67
6528;BME280;64597;42.664;23.256;2023-04-15T12:25:12;93930.34;;;19.78;23.59
6528;BME280;64597;42.664;23.256;2023-04-15T12:27:49;93931.13;;;19.78;23.79
6528;BME280;64597;42.664;23.256;2023-04-15T12:30:19;93935.03;;;19.50;23.83
6528;BME280;64597;42.664;23.256;2023-04-15T12:32:53;93928.47;;;19.56;24.09
6528;BME280;64597;42.664;23.256;2023-04-15T12:35:23;93933.19;;;19.59;24.27
6528;BME280;64597;42.664;23.256;2023-04-15T12:37:53;93938.44;;;19.64;25.23
6528;BME280;64597;42.664;23.256;2023-04-15T12:40:24;93935.56;;;19.60;25.13
6528;BME280;64597;42.664;23.256;2023-04-15T12:42:55;93856.09;;;19.08;24.94
6528;BME280;64597;42.664;23.256;2023-04-15T12:45:25;93936.47;;;19.78;25.43
6528;BME280;64597;42.664;23.256;2023-04-15T12:47:56;93935.41;;;19.88;23.89
6528;BME280;64597;42.664;23.256;2023-04-15T12:50:29;93940.34;;;19.94;23.86
6528;BME280;64597;42.664;23.256;2023-04-15T12:53:00;93929.41;;;19.82;23.89
6528;BME280;64597;42.664;23.256;2023-04-15T12:55:37;93927.28;;;19.93;23.95
6528;BME280;64597;42.664;23.256;2023-04-15T12:58:08;93943.63;;;19.91;23.89
6528;BME280;64597;42.664;23.256;2023-04-15T13:00:41;93911.22;;;19.62;24.35
6528;BME280;64597;42.664;23.256;2023-04-15T13:03:12;93927.47;;;19.74;24.62
6528;BME280;64597;42.664;23.256;2023-04-15T13:05:48;93929.19;;;19.70;23.92
6528;BME280;64597;42.664;23.256;2023-04-15T13:08:19;93929.63;;;19.63;24.62
6528;BME280;64597;42.664;23.256;2023-04-15T13:10:50;93932.19;;;19.68;24.41
6528;BME280;64597;42.664;23.256;2023-04-15T13:13:20;93931.72;;;19.75;24.50
6528;BME280;64597;42.664;23.256;2023-04-15T13:15:51;93928.78;;;19.85;23.55
6528;BME280;64597;42.664;23.256;2023-04-15T13:18:19;93928.72;;;19.68;24.60
6528;BME280;64597;42.664;23.256;2023-04-15T13:20:51;93932.59;;;19.62;23.84
6528;BME280;64597;42.664;23.256;2023-04-15T13:23:23;93927.25;;;19.62;23.87
6528;BME280;64597;42.664;23.256;2023-04-15T13:25:53;93919.09;;;19.67;24.61
6528;BME280;64597;42.664;23.256;2023-04-15T13:28:26;93926.03;;;19.68;23.95
6528;BME280;64597;42.664;23.256;2023-04-15T13:30:58;93924.63;;;19.70;23.99
6528;BME280;64597;42.664;23.256;2023-04-15T13:33:27;93919.69;;;19.86;24.64
6528;BME280;64597;42.664;23.256;2023-04-15T13:35:58;93923.69;;;19.97;24.29
6528;BME280;64597;42.664;23.256;2023-04-15T13:38:33;93925.59;;;20.05;24.38